createdAt,value
2022-12-07T00:01:40.055Z,7.22
2022-12-07T00:04:08.913Z,5.97
2022-12-07T00:06:41.782Z,8.38
2022-12-07T00:09:12.743Z,6.30
2022-12-07T00:11:39.700Z,6.35
2022-12-07T00:14:09.121Z,9.75
2022-12-07T00:16:36.526Z,6.88
2022-12-07T00:19:04.928Z,9.32
2022-12-07T00:21:33.977Z,7.32
2022-12-07T00:24:01.196Z,7.13
2022-12-07T00:26:31.661Z,7.78
2022-12-07T00:29:07.509Z,8.80
2022-12-07T00:31:40.131Z,8.77
2022-12-07T00:34:08.924Z,7.47
2022-12-07T00:36:36.348Z,7.93
2022-12-07T00:39:03.814Z,8.63
2022-12-07T00:41:31.603Z,7.03
2022-12-07T00:43:58.905Z,7.93
2022-12-07T00:46:26.421Z,11.00
2022-12-07T00:48:54.680Z,7.75
2022-12-07T00:51:25.186Z,10.75
2022-12-07T00:53:52.821Z,7.85
2022-12-07T00:56:23.394Z,8.32
2022-12-07T00:59:02.012Z,7.00
2022-12-07T01:01:31.881Z,8.60
2022-12-07T01:03:58.823Z,7.70
2022-12-07T01:06:26.649Z,7.57
2022-12-07T01:08:54.532Z,9.15
2022-12-07T01:11:24.338Z,6.45
2022-12-07T01:13:53.227Z,9.15
2022-12-07T01:16:22.344Z,6.82
2022-12-07T01:18:51.721Z,8.52
2022-12-07T01:21:22.093Z,11.88
2022-12-07T01:23:50.791Z,7.95
2022-12-07T01:26:22.080Z,9.38
2022-12-07T01:28:50.049Z,7.57
2022-12-07T01:31:20.174Z,9.68
2022-12-07T01:33:53.234Z,11.63
2022-12-07T01:36:33.437Z,9.50
2022-12-07T01:39:03.713Z,8.15
2022-12-07T01:41:33.508Z,6.35
2022-12-07T01:44:15.790Z,9.35
2022-12-07T01:46:52.309Z,10.05
2022-12-07T01:49:30.564Z,8.00
2022-12-07T01:52:05.675Z,10.85
2022-12-07T01:54:34.107Z,8.73
2022-12-07T01:57:01.914Z,9.93
2022-12-07T01:59:29.246Z,8.20
2022-12-07T02:01:57.198Z,10.20
2022-12-07T02:04:25.261Z,10.70
2022-12-07T02:06:53.146Z,10.98
2022-12-07T02:09:19.972Z,22.90
2022-12-07T02:11:47.707Z,18.08
2022-12-07T02:14:14.754Z,36.70
2022-12-07T02:17:03.663Z,19.42
2022-12-07T02:19:52.975Z,10.40
2022-12-07T02:23:08.848Z,10.80
2022-12-07T02:26:10.214Z,8.88
2022-12-07T02:28:39.303Z,9.30
2022-12-07T02:31:18.197Z,9.60
2022-12-07T02:33:52.202Z,9.63
2022-12-07T02:36:27.444Z,9.95
2022-12-07T02:39:02.504Z,10.00
2022-12-07T02:41:37.341Z,9.60
2022-12-07T02:44:11.953Z,8.02
2022-12-07T02:46:43.270Z,8.68
2022-12-07T02:49:11.909Z,9.32
2022-12-07T02:51:48.321Z,10.25
2022-12-07T02:54:20.715Z,11.90
2022-12-07T02:57:01.312Z,9.25
2022-12-07T02:59:43.430Z,8.65
2022-12-07T03:02:31.977Z,9.80
2022-12-07T03:05:31.340Z,9.95
2022-12-07T03:08:14.665Z,11.93
2022-12-07T03:10:47.582Z,18.80
2022-12-07T03:13:25.571Z,12.40
2022-12-07T03:16:09.188Z,10.80
2022-12-07T03:19:03.257Z,10.75
2022-12-07T03:21:38.594Z,11.70
2022-12-07T03:24:11.483Z,10.13
2022-12-07T03:26:44.109Z,12.32
2022-12-07T03:29:29.079Z,11.43
2022-12-07T03:32:12.048Z,13.55
2022-12-07T03:34:49.132Z,11.43
2022-12-07T03:37:27.666Z,11.05
2022-12-07T03:40:17.630Z,11.95
2022-12-07T03:42:44.855Z,10.18
2022-12-07T03:45:13.063Z,10.93
2022-12-07T03:48:06.835Z,11.13
2022-12-07T03:50:40.535Z,10.85
2022-12-07T03:53:35.233Z,13.38
2022-12-07T03:56:03.572Z,12.40
2022-12-07T03:58:31.392Z,13.38
2022-12-07T04:00:58.492Z,11.55
2022-12-07T04:03:25.492Z,14.20
2022-12-07T04:05:52.726Z,14.32
2022-12-07T04:08:24.911Z,12.57
2022-12-07T04:10:52.474Z,14.10
2022-12-07T04:13:19.554Z,12.80
2022-12-07T04:15:46.930Z,13.55
2022-12-07T04:18:15.737Z,13.05
2022-12-07T04:20:42.678Z,17.52
2022-12-07T04:23:10.036Z,16.60
2022-12-07T04:25:38.312Z,14.95
2022-12-07T04:28:05.301Z,13.07
2022-12-07T04:30:33.186Z,17.63
2022-12-07T04:33:00.278Z,15.05
2022-12-07T04:35:27.674Z,12.70
2022-12-07T04:37:56.577Z,15.65
2022-12-07T04:40:23.494Z,12.98
2022-12-07T04:42:50.410Z,14.93
2022-12-07T04:45:17.477Z,14.38
2022-12-07T04:47:44.443Z,12.55
2022-12-07T04:50:11.695Z,15.48
2022-12-07T04:52:38.643Z,16.70
2022-12-07T04:55:05.853Z,15.63
2022-12-07T04:57:33.748Z,13.77
2022-12-07T05:00:02.409Z,12.50
2022-12-07T05:02:29.905Z,11.05
2022-12-07T05:04:57.128Z,16.58
2022-12-07T05:07:27.690Z,13.23
2022-12-07T05:09:54.669Z,12.25
2022-12-07T05:12:22.361Z,13.60
2022-12-07T05:14:49.416Z,11.48
2022-12-07T05:17:16.426Z,11.00
2022-12-07T05:19:44.806Z,12.73
2022-12-07T05:22:13.420Z,13.88
2022-12-07T05:24:40.448Z,14.10
2022-12-07T05:27:08.114Z,12.88
2022-12-07T05:29:43.371Z,12.10
2022-12-07T05:32:10.292Z,12.73
2022-12-07T05:34:37.659Z,14.18
2022-12-07T05:37:04.886Z,12.77
2022-12-07T05:39:32.472Z,15.48
2022-12-07T05:42:14.305Z,15.30
2022-12-07T05:44:48.681Z,14.75
2022-12-07T05:47:16.648Z,16.38
2022-12-07T05:49:43.764Z,16.33
2022-12-07T05:52:10.819Z,17.80
2022-12-07T05:54:38.081Z,16.38
2022-12-07T05:57:05.359Z,15.40
2022-12-07T05:59:34.140Z,16.48
2022-12-07T06:02:08.388Z,18.42
2022-12-07T06:04:39.402Z,14.68
2022-12-07T06:07:07.029Z,15.27
2022-12-07T06:09:35.249Z,15.07
2022-12-07T06:12:43.241Z,13.55
2022-12-07T06:15:13.945Z,16.30
2022-12-07T06:17:40.887Z,16.50
2022-12-07T06:20:08.308Z,13.60
2022-12-07T06:22:35.323Z,12.90
2022-12-07T06:25:08.108Z,17.05
2022-12-07T06:27:36.544Z,16.00
2022-12-07T06:30:07.673Z,17.17
2022-12-07T06:32:35.247Z,18.15
2022-12-07T06:35:05.377Z,22.90
2022-12-07T06:37:33.305Z,13.32
2022-12-07T06:40:00.824Z,21.08
2022-12-07T06:42:28.219Z,18.30
2022-12-07T06:44:55.174Z,18.88
2022-12-07T06:47:46.146Z,18.70
2022-12-07T06:50:14.700Z,29.73
2022-12-07T06:52:41.582Z,24.27
2022-12-07T06:55:08.817Z,19.30
2022-12-07T06:57:35.786Z,20.13
2022-12-07T07:00:05.207Z,76.20
2022-12-07T07:02:32.433Z,34.65
2022-12-07T07:04:59.385Z,25.83
2022-12-07T07:08:20.280Z,23.45
2022-12-07T07:10:34.631Z,40.58
2022-12-07T07:13:24.774Z,40.10
2022-12-07T07:15:54.995Z,45.40
2022-12-07T07:18:22.252Z,33.70
2022-12-07T07:20:49.231Z,31.58
2022-12-07T07:23:16.848Z,42.88
2022-12-07T07:25:45.482Z,58.45
2022-12-07T07:28:12.788Z,34.13
2022-12-07T07:30:39.740Z,39.17
2022-12-07T07:33:14.754Z,38.92
2022-12-07T07:35:41.887Z,34.17
2022-12-07T07:38:11.293Z,37.63
2022-12-07T07:40:40.311Z,26.92
2022-12-07T07:43:09.183Z,30.13
2022-12-07T07:45:36.125Z,32.85
2022-12-07T07:48:04.454Z,27.30
2022-12-07T07:50:32.034Z,30.73
2022-12-07T07:52:59.512Z,30.35
2022-12-07T07:55:26.895Z,25.40
2022-12-07T07:58:02.955Z,28.55
2022-12-07T08:00:31.073Z,23.50
2022-12-07T08:02:58.120Z,25.58
2022-12-07T08:05:24.932Z,19.10
2022-12-07T08:07:52.093Z,26.52
2022-12-07T08:10:19.109Z,24.92
2022-12-07T08:13:04.737Z,23.50
2022-12-07T08:15:32.277Z,25.95
2022-12-07T08:17:59.967Z,21.73
2022-12-07T08:20:27.192Z,23.48
2022-12-07T08:22:54.086Z,24.25
2022-12-07T08:25:20.973Z,24.55
2022-12-07T08:27:47.837Z,17.33
2022-12-07T08:30:14.957Z,24.95
2022-12-07T08:32:42.029Z,15.90
2022-12-07T08:35:09.316Z,36.83
2022-12-07T08:37:36.527Z,29.23
2022-12-07T08:40:05.044Z,17.58
2022-12-07T08:42:38.847Z,19.80
2022-12-07T08:45:12.210Z,16.60
2022-12-07T08:47:45.896Z,15.82
2022-12-07T08:50:13.555Z,21.30
2022-12-07T08:52:42.429Z,65.32
2022-12-07T08:55:12.048Z,40.80
2022-12-07T08:57:40.316Z,27.65
2022-12-07T09:00:08.545Z,34.75
2022-12-07T09:02:35.782Z,46.28
2022-12-07T09:05:02.906Z,47.85
2022-12-07T09:07:33.203Z,31.52
2022-12-07T09:10:00.409Z,27.48
2022-12-07T09:12:28.205Z,38.72
2022-12-07T09:14:55.060Z,10.75
2022-12-07T09:17:22.049Z,33.92
2022-12-07T09:19:48.867Z,25.17
2022-12-07T09:22:15.798Z,33.47
2022-12-07T09:24:42.892Z,25.20
2022-12-07T09:27:09.699Z,21.63
2022-12-07T09:29:37.296Z,25.10
2022-12-07T09:32:08.412Z,17.20
2022-12-07T09:34:38.332Z,39.38
2022-12-07T09:37:05.245Z,23.92
2022-12-07T09:39:32.171Z,14.85
2022-12-07T09:42:00.900Z,19.70
2022-12-07T09:44:29.482Z,29.85
2022-12-07T09:46:57.792Z,17.80
2022-12-07T09:49:29.255Z,11.07
2022-12-07T09:52:18.298Z,18.75
2022-12-07T09:54:48.973Z,13.32
2022-12-07T09:57:16.616Z,16.48
2022-12-07T09:59:43.585Z,11.23
2022-12-07T10:02:39.482Z,12.65
2022-12-07T10:05:19.070Z,12.98
2022-12-07T10:07:49.132Z,13.00
2022-12-07T10:10:20.528Z,15.05
2022-12-07T10:13:01.358Z,13.45
2022-12-07T10:15:46.335Z,10.13
2022-12-07T10:18:33.631Z,14.43
2022-12-07T10:21:17.282Z,12.57
2022-12-07T10:24:20.486Z,17.67
2022-12-07T10:26:47.736Z,13.07
2022-12-07T10:29:22.398Z,12.40
2022-12-07T10:31:57.062Z,9.43
2022-12-07T10:34:36.604Z,17.35
2022-12-07T10:37:14.817Z,13.85
2022-12-07T10:39:52.555Z,7.22
2022-12-07T10:42:26.785Z,11.05
2022-12-07T10:45:17.088Z,13.95
2022-12-07T10:48:18.266Z,24.48
2022-12-07T10:51:00.004Z,16.17
2022-12-07T10:53:39.367Z,16.77
2022-12-07T10:56:24.280Z,8.90
2022-12-07T10:59:05.531Z,11.25
2022-12-07T11:01:38.101Z,13.80
2022-12-07T11:04:29.988Z,14.57
2022-12-07T11:07:06.239Z,19.05
2022-12-07T11:10:08.371Z,29.83
2022-12-07T11:12:58.484Z,19.95
2022-12-07T11:16:02.452Z,12.43
2022-12-07T11:18:39.857Z,15.70
2022-12-07T11:21:15.768Z,21.05
2022-12-07T11:24:17.062Z,31.92
2022-12-07T11:27:15.732Z,8.63
2022-12-07T11:29:54.782Z,11.45
2022-12-07T11:32:40.515Z,11.65
2022-12-07T11:35:36.266Z,20.23
2022-12-07T11:38:12.604Z,18.33
2022-12-07T11:40:41.824Z,11.15
2022-12-07T11:43:18.323Z,10.70
2022-12-07T11:45:57.230Z,11.50
2022-12-07T11:48:36.343Z,25.48
2022-12-07T11:51:05.646Z,14.82
2022-12-07T11:53:58.289Z,6.03
2022-12-07T11:56:28.388Z,8.40
2022-12-07T11:59:05.473Z,11.38
2022-12-07T12:01:32.799Z,12.43
2022-12-07T12:04:13.641Z,27.60
2022-12-07T12:06:43.613Z,14.32
2022-12-07T12:15:45.410Z,10.35
2022-12-07T12:18:15.308Z,14.10
2022-12-07T12:20:57.748Z,6.63
2022-12-07T12:23:42.610Z,8.60
2022-12-07T12:26:19.269Z,8.02
2022-12-07T12:28:58.057Z,7.55
2022-12-07T12:31:24.795Z,7.57
2022-12-07T12:33:54.236Z,9.63
2022-12-07T12:36:27.316Z,55.42
2022-12-07T12:38:59.967Z,12.52
2022-12-07T12:41:39.495Z,7.68
2022-12-07T12:44:21.239Z,6.28
2022-12-07T12:46:55.996Z,8.15
2022-12-07T12:49:22.824Z,8.05
2022-12-07T12:51:59.140Z,6.10
2022-12-07T12:54:28.683Z,10.15
2022-12-07T12:57:12.420Z,6.45
2022-12-07T13:02:27.157Z,5.10
2022-12-07T13:04:59.959Z,10.18
2022-12-07T13:07:45.888Z,8.93
2022-12-07T13:10:30.424Z,5.32
2022-12-07T13:13:20.946Z,5.07
2022-12-07T13:15:51.929Z,3.65
2022-12-07T13:18:34.003Z,4.55
2022-12-07T13:21:07.782Z,5.13
2022-12-07T13:26:18.314Z,8.07
2022-12-07T13:29:05.874Z,21.27
2022-12-07T13:31:40.572Z,13.68
2022-12-07T13:34:42.883Z,7.13
2022-12-07T13:37:38.510Z,15.05
2022-12-07T13:40:26.329Z,9.43
2022-12-07T13:43:06.191Z,10.77
2022-12-07T13:45:50.321Z,8.23
2022-12-07T13:48:18.536Z,14.32
2022-12-07T13:50:54.903Z,8.73
2022-12-07T13:53:22.074Z,9.15
2022-12-07T13:55:54.282Z,9.30
2022-12-07T13:58:23.483Z,10.40
2022-12-07T14:00:50.994Z,17.98
2022-12-07T14:03:17.942Z,10.48
2022-12-07T14:05:46.036Z,11.02
2022-12-07T14:08:14.063Z,19.92
2022-12-07T14:10:57.764Z,19.20
2022-12-07T14:13:40.422Z,13.35
2022-12-07T14:16:24.596Z,43.03
2022-12-07T14:18:51.855Z,23.98
2022-12-07T14:21:25.146Z,27.48
2022-12-07T14:24:10.051Z,18.15
2022-12-07T14:26:40.239Z,6.82
2022-12-07T14:29:25.781Z,15.93
2022-12-07T14:31:53.478Z,14.90
2022-12-07T14:34:22.812Z,31.52
2022-12-07T14:36:50.260Z,14.98
2022-12-07T14:39:17.645Z,12.32
2022-12-07T14:41:53.716Z,12.80
2022-12-07T14:44:26.791Z,17.38
2022-12-07T14:49:41.996Z,16.52
2022-12-07T14:55:34.621Z,31.55
2022-12-07T14:58:01.890Z,10.25
2022-12-07T15:00:29.539Z,9.50
2022-12-07T15:02:57.579Z,8.43
2022-12-07T15:05:25.761Z,9.00
2022-12-07T15:07:53.369Z,7.55
2022-12-07T15:10:24.607Z,6.75
2022-12-07T15:12:52.731Z,6.18
2022-12-07T15:15:21.094Z,6.75
2022-12-07T15:17:48.150Z,4.05
2022-12-07T15:20:17.962Z,4.82
2022-12-07T15:22:46.859Z,7.82
2022-12-07T15:25:15.341Z,7.68
2022-12-07T15:27:43.237Z,5.57
2022-12-07T15:30:10.509Z,6.40
2022-12-07T15:32:54.094Z,7.00
2022-12-07T15:35:27.659Z,6.88
2022-12-07T15:38:34.469Z,8.10
2022-12-07T15:41:25.241Z,9.43
2022-12-07T15:44:10.854Z,6.60
2022-12-07T15:46:40.613Z,16.38
2022-12-07T15:49:12.316Z,18.05
2022-12-07T15:51:39.187Z,13.48
2022-12-07T15:54:07.081Z,6.90
2022-12-07T15:56:34.090Z,8.20
2022-12-07T15:59:01.221Z,8.30
2022-12-07T16:01:28.089Z,8.35
2022-12-07T16:03:55.363Z,9.07
2022-12-07T16:06:23.388Z,9.35
2022-12-07T16:08:53.196Z,11.93
2022-12-07T16:11:20.170Z,7.28
2022-12-07T16:13:47.031Z,7.20
2022-12-07T16:16:16.455Z,8.30
2022-12-07T16:18:44.679Z,7.50
2022-12-07T16:21:12.524Z,7.68
2022-12-07T16:23:39.838Z,7.93
2022-12-07T16:26:13.278Z,6.82
2022-12-07T16:28:41.938Z,6.03
2022-12-07T16:31:15.106Z,9.05
2022-12-07T16:33:43.982Z,12.10
2022-12-07T16:36:14.479Z,7.65
2022-12-07T16:38:41.414Z,9.13
2022-12-07T16:41:09.256Z,14.82
2022-12-07T16:43:38.429Z,16.10
2022-12-07T16:46:06.669Z,14.40
2022-12-07T16:48:39.741Z,11.60
2022-12-07T16:51:12.031Z,9.87
2022-12-07T16:53:40.960Z,9.63
2022-12-07T16:56:12.769Z,10.40
2022-12-07T16:58:40.072Z,10.77
2022-12-07T17:01:18.399Z,8.07
2022-12-07T17:03:46.580Z,10.13
2022-12-07T17:06:19.725Z,8.07
2022-12-07T17:08:47.667Z,9.18
2022-12-07T17:11:28.014Z,10.02
2022-12-07T17:14:16.383Z,7.45
2022-12-07T17:16:43.458Z,7.85
2022-12-07T17:19:14.408Z,9.50
2022-12-07T17:21:42.227Z,14.57
2022-12-07T17:24:12.558Z,8.48
2022-12-07T17:26:40.394Z,13.50
2022-12-07T17:29:09.723Z,17.25
2022-12-07T17:31:37.492Z,11.77
2022-12-07T17:34:05.357Z,12.18
2022-12-07T17:36:33.106Z,11.43
2022-12-07T17:39:00.085Z,9.60
2022-12-07T17:41:47.707Z,9.63
2022-12-07T17:44:16.970Z,8.55
2022-12-07T17:46:45.049Z,9.90
2022-12-07T17:49:12.132Z,12.57
2022-12-07T17:51:57.620Z,14.27
2022-12-07T17:54:24.612Z,12.88
2022-12-07T17:56:51.540Z,14.48
2022-12-07T17:59:18.519Z,14.88
2022-12-07T18:01:46.034Z,16.13
2022-12-07T18:04:13.222Z,16.80
2022-12-07T18:06:40.567Z,19.73
2022-12-07T18:09:07.814Z,15.85
2022-12-07T18:11:35.037Z,16.48
2022-12-07T18:14:02.959Z,16.30
2022-12-07T18:16:33.194Z,20.60
2022-12-07T18:19:03.315Z,17.48
2022-12-07T18:21:31.855Z,16.60
2022-12-07T18:24:02.493Z,17.25
2022-12-07T18:26:34.142Z,16.35
2022-12-07T18:29:01.832Z,19.55
2022-12-07T18:31:29.690Z,16.38
2022-12-07T18:34:00.709Z,19.60
2022-12-07T18:36:27.677Z,16.75
2022-12-07T18:38:54.796Z,17.58
2022-12-07T18:41:21.751Z,16.80
2022-12-07T18:43:48.953Z,14.02
2022-12-07T18:46:21.703Z,15.27
2022-12-07T18:48:51.179Z,13.48
2022-12-07T18:51:20.205Z,13.60
2022-12-07T18:53:47.516Z,14.20
2022-12-07T18:56:20.244Z,13.98
2022-12-07T18:59:13.928Z,17.65
2022-12-07T19:01:42.740Z,13.80
2022-12-07T19:04:11.149Z,14.50
2022-12-07T19:06:38.766Z,13.48
2022-12-07T19:09:06.771Z,11.13
2022-12-07T19:11:52.399Z,14.93
2022-12-07T19:14:28.272Z,11.27
2022-12-07T19:16:58.040Z,19.25
2022-12-07T19:19:33.058Z,13.48
2022-12-07T19:22:01.274Z,14.02
2022-12-07T19:24:29.377Z,15.07
2022-12-07T19:26:56.763Z,16.35
2022-12-07T19:29:24.724Z,12.63
2022-12-07T19:31:53.652Z,13.05
2022-12-07T19:34:20.578Z,11.07
2022-12-07T19:36:47.758Z,11.30
2022-12-07T19:39:16.102Z,17.60
2022-12-07T19:41:44.777Z,20.33
2022-12-07T19:44:22.931Z,22.73
2022-12-07T19:46:51.273Z,33.75
2022-12-07T19:49:20.095Z,37.30
2022-12-07T19:51:50.025Z,16.77
2022-12-07T19:54:19.469Z,14.60
2022-12-07T19:56:47.552Z,21.05
2022-12-07T19:59:15.894Z,13.70
2022-12-07T20:01:43.640Z,11.20
2022-12-07T20:04:22.150Z,13.70
2022-12-07T20:06:51.967Z,11.13
2022-12-07T20:09:19.811Z,14.18
2022-12-07T20:12:05.724Z,12.70
2022-12-07T20:14:33.403Z,13.25
2022-12-07T20:17:00.705Z,15.65
2022-12-07T20:19:28.203Z,13.45
2022-12-07T20:21:55.342Z,18.45
2022-12-07T20:24:26.555Z,14.15
2022-12-07T20:26:57.781Z,13.00
2022-12-07T20:29:27.293Z,11.55
2022-12-07T20:31:55.186Z,12.38
2022-12-07T20:34:22.866Z,14.18
2022-12-07T20:36:49.860Z,11.80
2022-12-07T20:39:17.686Z,12.48
2022-12-07T20:42:03.208Z,10.90
2022-12-07T20:44:30.195Z,13.38
2022-12-07T20:46:57.011Z,13.30
2022-12-07T20:49:24.156Z,14.48
2022-12-07T20:51:51.603Z,12.45
2022-12-07T20:54:18.642Z,14.32
2022-12-07T20:56:45.590Z,15.40
2022-12-07T20:59:15.132Z,10.45
2022-12-07T21:01:43.325Z,11.85
2022-12-07T21:04:12.840Z,8.32
2022-12-07T21:06:39.888Z,13.35
2022-12-07T21:09:08.297Z,9.13
2022-12-07T21:11:35.213Z,10.93
2022-12-07T21:14:02.832Z,6.10
2022-12-07T21:16:31.462Z,16.23
2022-12-07T21:19:02.712Z,11.40
2022-12-07T21:21:31.782Z,20.70
2022-12-07T21:24:02.515Z,13.15
2022-12-07T21:26:31.320Z,15.07
2022-12-07T21:28:58.316Z,13.52
2022-12-07T21:31:30.340Z,11.73
2022-12-07T21:33:58.173Z,14.48
2022-12-07T21:36:26.737Z,12.63
2022-12-07T21:38:53.989Z,13.13
2022-12-07T21:41:30.829Z,12.73
2022-12-07T21:43:58.931Z,9.65
2022-12-07T21:46:33.304Z,9.75
2022-12-07T21:49:04.775Z,12.93
2022-12-07T21:51:32.657Z,13.15
2022-12-07T21:54:00.822Z,11.52
2022-12-07T21:56:30.867Z,8.43
2022-12-07T21:59:04.097Z,4.95
2022-12-07T22:01:36.145Z,15.27
2022-12-07T22:04:10.438Z,14.15
2022-12-07T22:06:37.813Z,11.18
2022-12-07T22:09:07.165Z,14.52
2022-12-07T22:11:35.107Z,9.32
2022-12-07T22:14:21.681Z,8.27
2022-12-07T22:16:49.768Z,9.60
2022-12-07T22:19:17.909Z,14.18
2022-12-07T22:21:45.590Z,13.88
2022-12-07T22:24:14.180Z,12.38
2022-12-07T22:26:42.991Z,13.18
2022-12-07T22:29:11.322Z,11.25
2022-12-07T22:31:41.260Z,11.85
2022-12-07T22:34:15.691Z,13.07
2022-12-07T22:36:42.914Z,10.85
2022-12-07T22:39:11.105Z,12.20
2022-12-07T22:41:38.289Z,12.48
2022-12-07T22:44:10.432Z,10.18
2022-12-07T22:46:38.217Z,9.23
2022-12-07T22:49:05.623Z,14.05
2022-12-07T22:51:36.080Z,15.20
2022-12-07T22:54:08.040Z,13.43
2022-12-07T22:56:37.097Z,11.25
2022-12-07T22:59:06.478Z,13.25
2022-12-07T23:01:34.007Z,13.80
2022-12-07T23:04:01.292Z,9.85
2022-12-07T23:06:31.527Z,12.60
2022-12-07T23:09:05.022Z,13.88
2022-12-07T23:11:54.152Z,12.40
2022-12-07T23:14:33.027Z,12.88
2022-12-07T23:17:00.451Z,14.82
2022-12-07T23:19:28.215Z,14.07
2022-12-07T23:21:55.240Z,11.32
2022-12-07T23:24:22.211Z,11.40
2022-12-07T23:26:49.936Z,13.23
2022-12-07T23:29:18.381Z,13.77
2022-12-07T23:31:47.460Z,12.77
2022-12-07T23:34:15.025Z,9.15
2022-12-07T23:36:42.032Z,10.07
2022-12-07T23:39:09.958Z,7.43
2022-12-07T23:41:36.809Z,14.90
2022-12-07T23:44:03.925Z,12.65
2022-12-07T23:46:32.934Z,10.10
2022-12-07T23:49:01.693Z,11.80
2022-12-07T23:51:30.150Z,12.18
2022-12-07T23:53:59.792Z,13.15
2022-12-07T23:56:29.008Z,13.50
2022-12-07T23:58:56.954Z,14.07
